sensor_id;sensor_type;location;lat;lon;timestamp;P1;durP1;ratioP1;P2;durP2;ratioP2
17618;SDS011;8928;51.678;6.074;2022-11-25T00:01:45;19.07;;;3.20;;
17618;SDS011;8928;51.678;6.074;2022-11-25T00:04:32;19.07;;;2.63;;
17618;SDS011;8928;51.678;6.074;2022-11-25T00:07:22;19.90;;;3.17;;
17618;SDS011;8928;51.678;6.074;2022-11-25T00:10:09;17.90;;;2.70;;
17618;SDS011;8928;51.678;6.074;2022-11-25T00:12:56;25.20;;;2.80;;
17618;SDS011;8928;51.678;6.074;2022-11-25T00:15:43;16.73;;;2.93;;
17618;SDS011;8928;51.678;6.074;2022-11-25T00:18:30;18.47;;;2.83;;
17618;SDS011;8928;51.678;6.074;2022-11-25T00:21:18;19.40;;;2.67;;
17618;SDS011;8928;51.678;6.074;2022-11-25T00:24:08;25.63;;;3.50;;
17618;SDS011;8928;51.678;6.074;2022-11-25T00:26:58;16.97;;;2.37;;
17618;SDS011;8928;51.678;6.074;2022-11-25T00:29:49;15.40;;;2.63;;
17618;SDS011;8928;51.678;6.074;2022-11-25T00:32:36;16.90;;;2.77;;
17618;SDS011;8928;51.678;6.074;2022-11-25T00:35:23;20.33;;;3.03;;
17618;SDS011;8928;51.678;6.074;2022-11-25T00:38:10;23.40;;;3.17;;
17618;SDS011;8928;51.678;6.074;2022-11-25T00:40:58;17.77;;;2.90;;
17618;SDS011;8928;51.678;6.074;2022-11-25T00:44:03;23.00;;;2.73;;
17618;SDS011;8928;51.678;6.074;2022-11-25T00:47:08;22.77;;;3.00;;
17618;SDS011;8928;51.678;6.074;2022-11-25T00:49:56;19.67;;;3.03;;
17618;SDS011;8928;51.678;6.074;2022-11-25T00:52:43;14.43;;;2.80;;
17618;SDS011;8928;51.678;6.074;2022-11-25T00:55:30;18.30;;;3.10;;
17618;SDS011;8928;51.678;6.074;2022-11-25T00:58:39;16.70;;;3.03;;
17618;SDS011;8928;51.678;6.074;2022-11-25T01:01:26;25.63;;;3.50;;
17618;SDS011;8928;51.678;6.074;2022-11-25T01:04:13;21.80;;;2.97;;
17618;SDS011;8928;51.678;6.074;2022-11-25T01:07:01;18.47;;;3.03;;
17618;SDS011;8928;51.678;6.074;2022-11-25T01:09:48;17.53;;;2.90;;
17618;SDS011;8928;51.678;6.074;2022-11-25T01:12:35;19.63;;;3.20;;
17618;SDS011;8928;51.678;6.074;2022-11-25T01:15:24;27.60;;;3.40;;
17618;SDS011;8928;51.678;6.074;2022-11-25T01:18:11;18.20;;;3.13;;
17618;SDS011;8928;51.678;6.074;2022-11-25T01:21:03;20.03;;;3.07;;
17618;SDS011;8928;51.678;6.074;2022-11-25T01:23:51;23.00;;;3.17;;
17618;SDS011;8928;51.678;6.074;2022-11-25T01:26:39;24.63;;;3.60;;
17618;SDS011;8928;51.678;6.074;2022-11-25T01:29:26;22.07;;;3.00;;
17618;SDS011;8928;51.678;6.074;2022-11-25T01:32:14;19.07;;;3.33;;
17618;SDS011;8928;51.678;6.074;2022-11-25T01:35:02;24.90;;;3.57;;
17618;SDS011;8928;51.678;6.074;2022-11-25T01:37:49;15.67;;;3.27;;
17618;SDS011;8928;51.678;6.074;2022-11-25T01:40:36;32.73;;;3.17;;
17618;SDS011;8928;51.678;6.074;2022-11-25T01:43:23;22.10;;;3.50;;
17618;SDS011;8928;51.678;6.074;2022-11-25T01:46:15;17.20;;;3.33;;
17618;SDS011;8928;51.678;6.074;2022-11-25T01:49:09;16.10;;;3.20;;
17618;SDS011;8928;51.678;6.074;2022-11-25T01:52:01;14.37;;;3.37;;
17618;SDS011;8928;51.678;6.074;2022-11-25T01:54:52;20.73;;;3.20;;
17618;SDS011;8928;51.678;6.074;2022-11-25T01:57:43;19.47;;;3.43;;
17618;SDS011;8928;51.678;6.074;2022-11-25T02:00:33;23.23;;;3.57;;
17618;SDS011;8928;51.678;6.074;2022-11-25T02:03:22;16.83;;;3.07;;
17618;SDS011;8928;51.678;6.074;2022-11-25T02:06:16;19.43;;;3.03;;
17618;SDS011;8928;51.678;6.074;2022-11-25T02:09:07;21.87;;;3.13;;
17618;SDS011;8928;51.678;6.074;2022-11-25T02:11:55;19.13;;;3.30;;
17618;SDS011;8928;51.678;6.074;2022-11-25T02:14:43;18.97;;;2.87;;
17618;SDS011;8928;51.678;6.074;2022-11-25T02:17:31;17.30;;;3.50;;
17618;SDS011;8928;51.678;6.074;2022-11-25T02:20:19;28.90;;;3.43;;
17618;SDS011;8928;51.678;6.074;2022-11-25T02:23:11;20.13;;;3.73;;
17618;SDS011;8928;51.678;6.074;2022-11-25T02:26:07;23.73;;;3.50;;
17618;SDS011;8928;51.678;6.074;2022-11-25T02:28:54;19.57;;;3.60;;
17618;SDS011;8928;51.678;6.074;2022-11-25T02:31:42;25.70;;;3.70;;
17618;SDS011;8928;51.678;6.074;2022-11-25T02:34:29;19.30;;;3.70;;
17618;SDS011;8928;51.678;6.074;2022-11-25T02:37:17;18.70;;;2.93;;
17618;SDS011;8928;51.678;6.074;2022-11-25T02:40:06;20.07;;;3.60;;
17618;SDS011;8928;51.678;6.074;2022-11-25T02:42:57;18.70;;;3.27;;
17618;SDS011;8928;51.678;6.074;2022-11-25T02:45:50;18.03;;;3.73;;
17618;SDS011;8928;51.678;6.074;2022-11-25T02:48:41;27.67;;;3.43;;
17618;SDS011;8928;51.678;6.074;2022-11-25T02:51:29;19.43;;;3.37;;
17618;SDS011;8928;51.678;6.074;2022-11-25T02:54:16;19.27;;;3.30;;
17618;SDS011;8928;51.678;6.074;2022-11-25T02:57:03;20.57;;;3.17;;
17618;SDS011;8928;51.678;6.074;2022-11-25T02:59:52;19.10;;;2.97;;
17618;SDS011;8928;51.678;6.074;2022-11-25T03:02:39;18.17;;;3.30;;
17618;SDS011;8928;51.678;6.074;2022-11-25T03:05:26;14.90;;;3.00;;
17618;SDS011;8928;51.678;6.074;2022-11-25T03:08:13;19.90;;;3.30;;
17618;SDS011;8928;51.678;6.074;2022-11-25T03:11:00;23.80;;;3.50;;
17618;SDS011;8928;51.678;6.074;2022-11-25T03:13:47;15.73;;;2.70;;
17618;SDS011;8928;51.678;6.074;2022-11-25T03:16:36;27.03;;;3.60;;
17618;SDS011;8928;51.678;6.074;2022-11-25T03:19:23;22.60;;;3.60;;
17618;SDS011;8928;51.678;6.074;2022-11-25T03:22:10;16.30;;;3.20;;
17618;SDS011;8928;51.678;6.074;2022-11-25T03:24:57;29.97;;;3.43;;
17618;SDS011;8928;51.678;6.074;2022-11-25T03:27:44;18.77;;;2.90;;
17618;SDS011;8928;51.678;6.074;2022-11-25T03:30:31;19.37;;;3.40;;
17618;SDS011;8928;51.678;6.074;2022-11-25T03:33:19;21.20;;;3.37;;
17618;SDS011;8928;51.678;6.074;2022-11-25T03:36:06;17.27;;;3.10;;
17618;SDS011;8928;51.678;6.074;2022-11-25T03:38:53;20.60;;;3.20;;
17618;SDS011;8928;51.678;6.074;2022-11-25T03:41:40;11.73;;;2.73;;
17618;SDS011;8928;51.678;6.074;2022-11-25T03:44:27;17.43;;;3.00;;
17618;SDS011;8928;51.678;6.074;2022-11-25T03:47:14;15.53;;;2.90;;
17618;SDS011;8928;51.678;6.074;2022-11-25T03:50:03;19.53;;;3.10;;
17618;SDS011;8928;51.678;6.074;2022-11-25T03:52:51;25.67;;;3.23;;
17618;SDS011;8928;51.678;6.074;2022-11-25T03:55:38;22.67;;;3.30;;
17618;SDS011;8928;51.678;6.074;2022-11-25T03:58:25;25.07;;;3.27;;
17618;SDS011;8928;51.678;6.074;2022-11-25T04:01:13;22.67;;;3.23;;
17618;SDS011;8928;51.678;6.074;2022-11-25T04:04:00;30.57;;;3.87;;
17618;SDS011;8928;51.678;6.074;2022-11-25T04:06:48;25.37;;;4.10;;
17618;SDS011;8928;51.678;6.074;2022-11-25T04:09:35;20.43;;;3.60;;
17618;SDS011;8928;51.678;6.074;2022-11-25T04:12:22;24.40;;;4.20;;
17618;SDS011;8928;51.678;6.074;2022-11-25T04:15:27;23.73;;;3.60;;
17618;SDS011;8928;51.678;6.074;2022-11-25T04:18:14;25.20;;;3.80;;
17618;SDS011;8928;51.678;6.074;2022-11-25T04:21:02;22.33;;;3.87;;
17618;SDS011;8928;51.678;6.074;2022-11-25T04:23:50;18.07;;;3.30;;
17618;SDS011;8928;51.678;6.074;2022-11-25T04:26:37;23.50;;;3.40;;
17618;SDS011;8928;51.678;6.074;2022-11-25T04:29:24;17.73;;;3.20;;
17618;SDS011;8928;51.678;6.074;2022-11-25T04:32:11;24.50;;;3.90;;
17618;SDS011;8928;51.678;6.074;2022-11-25T04:34:58;21.57;;;3.20;;
17618;SDS011;8928;51.678;6.074;2022-11-25T04:37:46;16.17;;;3.63;;
17618;SDS011;8928;51.678;6.074;2022-11-25T04:40:34;24.97;;;3.40;;
17618;SDS011;8928;51.678;6.074;2022-11-25T04:43:21;23.90;;;3.30;;
17618;SDS011;8928;51.678;6.074;2022-11-25T04:46:08;18.83;;;3.07;;
17618;SDS011;8928;51.678;6.074;2022-11-25T04:49:01;17.37;;;3.33;;
17618;SDS011;8928;51.678;6.074;2022-11-25T04:51:48;13.70;;;3.10;;
17618;SDS011;8928;51.678;6.074;2022-11-25T04:54:35;21.33;;;2.83;;
17618;SDS011;8928;51.678;6.074;2022-11-25T04:57:24;19.60;;;3.27;;
17618;SDS011;8928;51.678;6.074;2022-11-25T05:00:11;17.00;;;3.53;;
17618;SDS011;8928;51.678;6.074;2022-11-25T05:02:59;16.03;;;2.90;;
17618;SDS011;8928;51.678;6.074;2022-11-25T05:05:46;17.87;;;3.47;;
17618;SDS011;8928;51.678;6.074;2022-11-25T05:08:33;16.67;;;3.20;;
17618;SDS011;8928;51.678;6.074;2022-11-25T05:11:20;16.97;;;2.80;;
17618;SDS011;8928;51.678;6.074;2022-11-25T05:14:08;13.43;;;2.80;;
17618;SDS011;8928;51.678;6.074;2022-11-25T05:16:56;14.83;;;2.90;;
17618;SDS011;8928;51.678;6.074;2022-11-25T05:19:43;15.93;;;3.00;;
17618;SDS011;8928;51.678;6.074;2022-11-25T05:22:30;18.40;;;3.50;;
17618;SDS011;8928;51.678;6.074;2022-11-25T05:25:18;19.67;;;3.20;;
17618;SDS011;8928;51.678;6.074;2022-11-25T05:28:05;17.50;;;3.37;;
17618;SDS011;8928;51.678;6.074;2022-11-25T05:30:54;18.10;;;3.10;;
17618;SDS011;8928;51.678;6.074;2022-11-25T05:33:41;18.83;;;3.43;;
17618;SDS011;8928;51.678;6.074;2022-11-25T05:36:28;17.93;;;3.03;;
17618;SDS011;8928;51.678;6.074;2022-11-25T05:39:16;14.13;;;2.90;;
17618;SDS011;8928;51.678;6.074;2022-11-25T05:42:03;17.43;;;3.40;;
17618;SDS011;8928;51.678;6.074;2022-11-25T05:44:51;17.13;;;3.30;;
17618;SDS011;8928;51.678;6.074;2022-11-25T05:47:39;19.70;;;3.13;;
17618;SDS011;8928;51.678;6.074;2022-11-25T05:50:26;15.97;;;3.00;;
17618;SDS011;8928;51.678;6.074;2022-11-25T05:53:13;15.50;;;2.97;;
17618;SDS011;8928;51.678;6.074;2022-11-25T05:56:02;14.00;;;2.93;;
17618;SDS011;8928;51.678;6.074;2022-11-25T05:58:50;17.67;;;3.00;;
17618;SDS011;8928;51.678;6.074;2022-11-25T06:01:39;24.40;;;2.60;;
17618;SDS011;8928;51.678;6.074;2022-11-25T06:04:27;17.07;;;2.70;;
17618;SDS011;8928;51.678;6.074;2022-11-25T06:07:14;18.10;;;2.70;;
17618;SDS011;8928;51.678;6.074;2022-11-25T06:10:01;12.10;;;2.67;;
17618;SDS011;8928;51.678;6.074;2022-11-25T06:12:49;16.57;;;2.60;;
17618;SDS011;8928;51.678;6.074;2022-11-25T06:15:39;14.67;;;2.50;;
17618;SDS011;8928;51.678;6.074;2022-11-25T06:18:27;16.67;;;2.50;;
17618;SDS011;8928;51.678;6.074;2022-11-25T06:21:15;13.33;;;2.47;;
17618;SDS011;8928;51.678;6.074;2022-11-25T06:24:03;15.03;;;2.53;;
17618;SDS011;8928;51.678;6.074;2022-11-25T06:26:50;19.13;;;3.03;;
17618;SDS011;8928;51.678;6.074;2022-11-25T06:29:37;13.97;;;2.33;;
17618;SDS011;8928;51.678;6.074;2022-11-25T06:32:24;14.00;;;2.60;;
17618;SDS011;8928;51.678;6.074;2022-11-25T06:35:11;9.77;;;2.23;;
17618;SDS011;8928;51.678;6.074;2022-11-25T06:38:00;13.80;;;2.73;;
17618;SDS011;8928;51.678;6.074;2022-11-25T06:40:47;14.10;;;2.50;;
17618;SDS011;8928;51.678;6.074;2022-11-25T06:43:34;11.43;;;2.50;;
17618;SDS011;8928;51.678;6.074;2022-11-25T06:46:21;19.70;;;2.67;;
17618;SDS011;8928;51.678;6.074;2022-11-25T06:49:08;23.20;;;3.00;;
17618;SDS011;8928;51.678;6.074;2022-11-25T06:51:55;13.17;;;2.87;;
17618;SDS011;8928;51.678;6.074;2022-11-25T06:54:43;10.27;;;2.70;;
17618;SDS011;8928;51.678;6.074;2022-11-25T06:57:30;12.73;;;2.87;;
17618;SDS011;8928;51.678;6.074;2022-11-25T07:00:18;20.30;;;3.07;;
17618;SDS011;8928;51.678;6.074;2022-11-25T07:03:05;11.53;;;2.70;;
17618;SDS011;8928;51.678;6.074;2022-11-25T07:05:54;16.87;;;2.80;;
17618;SDS011;8928;51.678;6.074;2022-11-25T07:08:41;15.57;;;2.53;;
17618;SDS011;8928;51.678;6.074;2022-11-25T07:11:30;13.53;;;2.30;;
17618;SDS011;8928;51.678;6.074;2022-11-25T07:14:18;11.50;;;2.30;;
17618;SDS011;8928;51.678;6.074;2022-11-25T07:17:06;14.33;;;2.60;;
17618;SDS011;8928;51.678;6.074;2022-11-25T07:19:53;13.53;;;2.67;;
17618;SDS011;8928;51.678;6.074;2022-11-25T07:22:40;15.10;;;2.53;;
17618;SDS011;8928;51.678;6.074;2022-11-25T07:25:27;10.73;;;2.80;;
17618;SDS011;8928;51.678;6.074;2022-11-25T07:28:15;15.60;;;2.87;;
17618;SDS011;8928;51.678;6.074;2022-11-25T07:31:03;11.80;;;2.97;;
17618;SDS011;8928;51.678;6.074;2022-11-25T07:33:51;21.10;;;3.07;;
17618;SDS011;8928;51.678;6.074;2022-11-25T07:36:40;24.80;;;3.07;;
17618;SDS011;8928;51.678;6.074;2022-11-25T07:39:27;16.90;;;3.10;;
17618;SDS011;8928;51.678;6.074;2022-11-25T07:42:14;17.37;;;3.47;;
17618;SDS011;8928;51.678;6.074;2022-11-25T07:45:03;20.37;;;3.40;;
17618;SDS011;8928;51.678;6.074;2022-11-25T07:47:50;11.00;;;3.50;;
17618;SDS011;8928;51.678;6.074;2022-11-25T07:50:37;13.07;;;3.40;;
17618;SDS011;8928;51.678;6.074;2022-11-25T07:53:24;14.47;;;3.60;;
17618;SDS011;8928;51.678;6.074;2022-11-25T07:56:11;17.03;;;3.67;;
17618;SDS011;8928;51.678;6.074;2022-11-25T07:59:00;22.43;;;4.30;;
17618;SDS011;8928;51.678;6.074;2022-11-25T08:01:49;13.30;;;4.10;;
17618;SDS011;8928;51.678;6.074;2022-11-25T08:04:36;22.97;;;5.20;;
17618;SDS011;8928;51.678;6.074;2022-11-25T08:07:23;25.90;;;5.10;;
17618;SDS011;8928;51.678;6.074;2022-11-25T08:10:10;22.77;;;4.70;;
17618;SDS011;8928;51.678;6.074;2022-11-25T08:12:58;17.37;;;4.63;;
17618;SDS011;8928;51.678;6.074;2022-11-25T08:15:45;21.10;;;5.63;;
17618;SDS011;8928;51.678;6.074;2022-11-25T08:18:33;22.70;;;5.80;;
17618;SDS011;8928;51.678;6.074;2022-11-25T08:21:20;25.43;;;6.20;;
17618;SDS011;8928;51.678;6.074;2022-11-25T08:24:08;22.13;;;6.50;;
17618;SDS011;8928;51.678;6.074;2022-11-25T08:26:58;25.07;;;7.00;;
17618;SDS011;8928;51.678;6.074;2022-11-25T08:29:46;22.27;;;7.00;;
17618;SDS011;8928;51.678;6.074;2022-11-25T08:32:35;23.03;;;6.77;;
17618;SDS011;8928;51.678;6.074;2022-11-25T08:35:24;23.40;;;6.50;;
17618;SDS011;8928;51.678;6.074;2022-11-25T08:38:11;21.63;;;5.80;;
17618;SDS011;8928;51.678;6.074;2022-11-25T08:40:58;27.87;;;5.97;;
17618;SDS011;8928;51.678;6.074;2022-11-25T08:43:46;21.30;;;5.37;;
17618;SDS011;8928;51.678;6.074;2022-11-25T08:46:34;19.27;;;5.17;;
17618;SDS011;8928;51.678;6.074;2022-11-25T08:49:23;20.57;;;5.07;;
17618;SDS011;8928;51.678;6.074;2022-11-25T08:52:12;21.23;;;5.80;;
17618;SDS011;8928;51.678;6.074;2022-11-25T08:54:59;24.80;;;6.10;;
17618;SDS011;8928;51.678;6.074;2022-11-25T08:57:46;29.23;;;5.90;;
17618;SDS011;8928;51.678;6.074;2022-11-25T09:00:33;22.67;;;5.90;;
17618;SDS011;8928;51.678;6.074;2022-11-25T09:03:20;20.03;;;5.30;;
17618;SDS011;8928;51.678;6.074;2022-11-25T09:06:08;22.23;;;5.80;;
17618;SDS011;8928;51.678;6.074;2022-11-25T09:08:57;18.80;;;5.40;;
17618;SDS011;8928;51.678;6.074;2022-11-25T09:11:46;20.13;;;5.63;;
17618;SDS011;8928;51.678;6.074;2022-11-25T09:14:33;21.00;;;5.63;;
17618;SDS011;8928;51.678;6.074;2022-11-25T09:17:20;20.40;;;5.40;;
17618;SDS011;8928;51.678;6.074;2022-11-25T09:20:07;19.73;;;5.10;;
17618;SDS011;8928;51.678;6.074;2022-11-25T09:22:55;17.13;;;5.00;;
17618;SDS011;8928;51.678;6.074;2022-11-25T09:25:50;22.80;;;5.40;;
17618;SDS011;8928;51.678;6.074;2022-11-25T09:28:38;15.30;;;4.97;;
17618;SDS011;8928;51.678;6.074;2022-11-25T09:31:25;23.73;;;5.83;;
17618;SDS011;8928;51.678;6.074;2022-11-25T09:34:12;21.43;;;5.63;;
17618;SDS011;8928;51.678;6.074;2022-11-25T09:36:59;18.97;;;5.30;;
17618;SDS011;8928;51.678;6.074;2022-11-25T09:39:46;18.67;;;5.80;;
17618;SDS011;8928;51.678;6.074;2022-11-25T09:42:39;16.80;;;5.20;;
17618;SDS011;8928;51.678;6.074;2022-11-25T09:45:54;18.30;;;5.13;;
17618;SDS011;8928;51.678;6.074;2022-11-25T09:49:20;22.77;;;6.30;;
17618;SDS011;8928;51.678;6.074;2022-11-25T09:52:26;25.73;;;5.77;;
17618;SDS011;8928;51.678;6.074;2022-11-25T09:55:22;24.10;;;6.27;;
17618;SDS011;8928;51.678;6.074;2022-11-25T09:58:15;19.57;;;5.20;;
17618;SDS011;8928;51.678;6.074;2022-11-25T10:01:11;22.80;;;5.43;;
17618;SDS011;8928;51.678;6.074;2022-11-25T10:04:03;25.37;;;5.17;;
17618;SDS011;8928;51.678;6.074;2022-11-25T10:06:56;19.27;;;5.03;;
17618;SDS011;8928;51.678;6.074;2022-11-25T10:09:46;20.97;;;5.07;;
17618;SDS011;8928;51.678;6.074;2022-11-25T10:12:34;15.47;;;4.50;;
17618;SDS011;8928;51.678;6.074;2022-11-25T10:15:28;18.53;;;4.77;;
17618;SDS011;8928;51.678;6.074;2022-11-25T10:18:20;15.37;;;4.37;;
17618;SDS011;8928;51.678;6.074;2022-11-25T10:21:12;12.37;;;4.10;;
17618;SDS011;8928;51.678;6.074;2022-11-25T10:23:59;16.87;;;4.40;;
17618;SDS011;8928;51.678;6.074;2022-11-25T10:26:51;12.20;;;3.80;;
17618;SDS011;8928;51.678;6.074;2022-11-25T10:29:43;16.10;;;3.80;;
17618;SDS011;8928;51.678;6.074;2022-11-25T10:32:38;12.10;;;3.00;;
17618;SDS011;8928;51.678;6.074;2022-11-25T10:35:29;11.63;;;3.47;;
17618;SDS011;8928;51.678;6.074;2022-11-25T10:38:21;15.73;;;3.40;;
17618;SDS011;8928;51.678;6.074;2022-11-25T10:41:14;14.27;;;3.57;;
17618;SDS011;8928;51.678;6.074;2022-11-25T10:44:04;13.93;;;3.57;;
17618;SDS011;8928;51.678;6.074;2022-11-25T10:47:02;16.33;;;3.40;;
17618;SDS011;8928;51.678;6.074;2022-11-25T10:50:05;12.83;;;3.27;;
17618;SDS011;8928;51.678;6.074;2022-11-25T10:53:01;16.50;;;3.27;;
17618;SDS011;8928;51.678;6.074;2022-11-25T10:55:56;10.33;;;3.10;;
17618;SDS011;8928;51.678;6.074;2022-11-25T10:58:45;13.87;;;3.30;;
17618;SDS011;8928;51.678;6.074;2022-11-25T11:01:32;12.97;;;3.13;;
17618;SDS011;8928;51.678;6.074;2022-11-25T11:04:19;11.33;;;3.00;;
17618;SDS011;8928;51.678;6.074;2022-11-25T11:07:08;11.43;;;3.10;;
17618;SDS011;8928;51.678;6.074;2022-11-25T11:10:06;12.43;;;3.33;;
17618;SDS011;8928;51.678;6.074;2022-11-25T11:13:04;11.60;;;2.67;;
17618;SDS011;8928;51.678;6.074;2022-11-25T11:16:04;11.67;;;3.17;;
17618;SDS011;8928;51.678;6.074;2022-11-25T11:19:19;17.07;;;3.60;;
17618;SDS011;8928;51.678;6.074;2022-11-25T11:22:15;16.67;;;3.43;;
17618;SDS011;8928;51.678;6.074;2022-11-25T11:25:06;17.00;;;3.00;;
17618;SDS011;8928;51.678;6.074;2022-11-25T11:27:55;14.00;;;2.87;;
17618;SDS011;8928;51.678;6.074;2022-11-25T11:30:51;11.03;;;2.97;;
17618;SDS011;8928;51.678;6.074;2022-11-25T11:33:42;16.17;;;3.10;;
17618;SDS011;8928;51.678;6.074;2022-11-25T11:36:41;15.57;;;3.23;;
17618;SDS011;8928;51.678;6.074;2022-11-25T11:39:53;11.30;;;2.90;;
17618;SDS011;8928;51.678;6.074;2022-11-25T11:42:50;18.77;;;3.10;;
17618;SDS011;8928;51.678;6.074;2022-11-25T11:45:53;20.57;;;3.10;;
17618;SDS011;8928;51.678;6.074;2022-11-25T11:48:51;17.27;;;2.90;;
17618;SDS011;8928;51.678;6.074;2022-11-25T11:51:50;10.67;;;2.87;;
17618;SDS011;8928;51.678;6.074;2022-11-25T11:54:43;14.93;;;2.53;;
17618;SDS011;8928;51.678;6.074;2022-11-25T11:57:42;11.90;;;2.53;;
17618;SDS011;8928;51.678;6.074;2022-11-25T12:00:36;16.50;;;3.00;;
17618;SDS011;8928;51.678;6.074;2022-11-25T12:03:31;12.67;;;2.57;;
17618;SDS011;8928;51.678;6.074;2022-11-25T12:06:24;10.73;;;2.50;;
17618;SDS011;8928;51.678;6.074;2022-11-25T12:09:16;13.13;;;2.33;;
17618;SDS011;8928;51.678;6.074;2022-11-25T12:12:07;10.60;;;2.70;;
17618;SDS011;8928;51.678;6.074;2022-11-25T12:15:02;15.93;;;2.77;;
17618;SDS011;8928;51.678;6.074;2022-11-25T12:17:56;14.77;;;2.23;;
17618;SDS011;8928;51.678;6.074;2022-11-25T12:20:48;11.13;;;2.60;;
17618;SDS011;8928;51.678;6.074;2022-11-25T12:23:43;12.43;;;1.97;;
17618;SDS011;8928;51.678;6.074;2022-11-25T12:26:41;11.40;;;2.27;;
17618;SDS011;8928;51.678;6.074;2022-11-25T12:29:35;11.87;;;2.30;;
17618;SDS011;8928;51.678;6.074;2022-11-25T12:32:45;11.83;;;2.30;;
17618;SDS011;8928;51.678;6.074;2022-11-25T12:35:45;11.93;;;2.27;;
17618;SDS011;8928;51.678;6.074;2022-11-25T12:38:42;12.63;;;2.43;;
17618;SDS011;8928;51.678;6.074;2022-11-25T12:41:35;12.60;;;2.13;;
17618;SDS011;8928;51.678;6.074;2022-11-25T12:44:27;19.37;;;2.57;;
17618;SDS011;8928;51.678;6.074;2022-11-25T12:47:17;12.77;;;2.20;;
17618;SDS011;8928;51.678;6.074;2022-11-25T12:50:11;12.83;;;2.20;;
17618;SDS011;8928;51.678;6.074;2022-11-25T12:53:01;12.50;;;2.30;;
17618;SDS011;8928;51.678;6.074;2022-11-25T12:55:56;11.50;;;2.37;;
17618;SDS011;8928;51.678;6.074;2022-11-25T12:58:52;12.83;;;2.40;;
17618;SDS011;8928;51.678;6.074;2022-11-25T13:01:56;12.10;;;2.57;;
17618;SDS011;8928;51.678;6.074;2022-11-25T13:05:03;9.43;;;1.80;;
17618;SDS011;8928;51.678;6.074;2022-11-25T13:08:14;11.20;;;2.27;;
17618;SDS011;8928;51.678;6.074;2022-11-25T13:11:17;13.17;;;2.13;;
17618;SDS011;8928;51.678;6.074;2022-11-25T13:14:28;11.80;;;2.30;;
17618;SDS011;8928;51.678;6.074;2022-11-25T13:17:42;12.03;;;2.37;;
17618;SDS011;8928;51.678;6.074;2022-11-25T13:20:34;9.83;;;2.43;;
17618;SDS011;8928;51.678;6.074;2022-11-25T13:23:31;11.17;;;2.20;;
17618;SDS011;8928;51.678;6.074;2022-11-25T13:32:48;13.07;;;2.30;;
17618;SDS011;8928;51.678;6.074;2022-11-25T13:39:02;16.60;;;2.13;;
17618;SDS011;8928;51.678;6.074;2022-11-25T13:41:59;14.23;;;2.43;;
17618;SDS011;8928;51.678;6.074;2022-11-25T13:44:48;11.87;;;2.07;;
17618;SDS011;8928;51.678;6.074;2022-11-25T13:47:37;13.77;;;2.00;;
17618;SDS011;8928;51.678;6.074;2022-11-25T13:50:28;12.47;;;2.10;;
17618;SDS011;8928;51.678;6.074;2022-11-25T13:53:21;15.67;;;2.20;;
17618;SDS011;8928;51.678;6.074;2022-11-25T13:56:13;11.93;;;1.90;;
17618;SDS011;8928;51.678;6.074;2022-11-25T13:59:17;11.77;;;2.10;;
17618;SDS011;8928;51.678;6.074;2022-11-25T14:02:31;19.60;;;2.40;;
17618;SDS011;8928;51.678;6.074;2022-11-25T14:08:40;16.07;;;2.37;;
17618;SDS011;8928;51.678;6.074;2022-11-25T14:11:45;13.83;;;2.40;;
17618;SDS011;8928;51.678;6.074;2022-11-25T14:14:45;15.63;;;2.60;;
17618;SDS011;8928;51.678;6.074;2022-11-25T14:21:11;17.27;;;2.60;;
17618;SDS011;8928;51.678;6.074;2022-11-25T14:24:12;19.47;;;2.77;;
17618;SDS011;8928;51.678;6.074;2022-11-25T14:27:15;13.13;;;2.60;;
17618;SDS011;8928;51.678;6.074;2022-11-25T14:30:05;16.07;;;2.60;;
17618;SDS011;8928;51.678;6.074;2022-11-25T14:32:54;16.13;;;2.90;;
17618;SDS011;8928;51.678;6.074;2022-11-25T14:35:45;13.30;;;2.67;;
17618;SDS011;8928;51.678;6.074;2022-11-25T14:38:36;19.57;;;3.37;;
17618;SDS011;8928;51.678;6.074;2022-11-25T14:41:30;16.57;;;3.13;;
17618;SDS011;8928;51.678;6.074;2022-11-25T14:44:23;14.73;;;3.10;;
17618;SDS011;8928;51.678;6.074;2022-11-25T14:47:13;14.70;;;2.90;;
17618;SDS011;8928;51.678;6.074;2022-11-25T14:50:01;22.03;;;3.43;;
17618;SDS011;8928;51.678;6.074;2022-11-25T14:52:48;19.23;;;2.93;;
17618;SDS011;8928;51.678;6.074;2022-11-25T14:55:36;20.03;;;3.37;;
17618;SDS011;8928;51.678;6.074;2022-11-25T14:58:25;20.40;;;3.30;;
17618;SDS011;8928;51.678;6.074;2022-11-25T15:01:16;18.47;;;3.20;;
17618;SDS011;8928;51.678;6.074;2022-11-25T15:04:05;16.80;;;3.60;;
17618;SDS011;8928;51.678;6.074;2022-11-25T15:06:54;22.90;;;3.93;;
17618;SDS011;8928;51.678;6.074;2022-11-25T15:09:45;23.70;;;3.20;;
17618;SDS011;8928;51.678;6.074;2022-11-25T15:12:32;17.37;;;3.70;;
17618;SDS011;8928;51.678;6.074;2022-11-25T15:15:20;17.70;;;3.10;;
17618;SDS011;8928;51.678;6.074;2022-11-25T15:18:09;18.20;;;3.53;;
17618;SDS011;8928;51.678;6.074;2022-11-25T15:21:03;22.33;;;4.27;;
17618;SDS011;8928;51.678;6.074;2022-11-25T15:23:51;16.70;;;3.63;;
17618;SDS011;8928;51.678;6.074;2022-11-25T15:26:38;18.37;;;3.60;;
17618;SDS011;8928;51.678;6.074;2022-11-25T15:29:26;18.33;;;4.03;;
17618;SDS011;8928;51.678;6.074;2022-11-25T15:32:17;17.63;;;3.70;;
17618;SDS011;8928;51.678;6.074;2022-11-25T15:35:06;14.33;;;3.63;;
17618;SDS011;8928;51.678;6.074;2022-11-25T15:38:15;21.13;;;4.40;;
17618;SDS011;8928;51.678;6.074;2022-11-25T15:41:03;19.37;;;4.33;;
17618;SDS011;8928;51.678;6.074;2022-11-25T15:43:51;17.53;;;4.90;;
17618;SDS011;8928;51.678;6.074;2022-11-25T15:46:40;22.33;;;5.57;;
17618;SDS011;8928;51.678;6.074;2022-11-25T15:49:38;25.40;;;6.43;;
17618;SDS011;8928;51.678;6.074;2022-11-25T15:52:26;24.83;;;5.60;;
17618;SDS011;8928;51.678;6.074;2022-11-25T15:55:17;21.00;;;5.30;;
17618;SDS011;8928;51.678;6.074;2022-11-25T15:58:12;21.63;;;5.50;;
17618;SDS011;8928;51.678;6.074;2022-11-25T16:01:05;22.77;;;5.73;;
17618;SDS011;8928;51.678;6.074;2022-11-25T16:04:10;28.40;;;5.73;;
17618;SDS011;8928;51.678;6.074;2022-11-25T16:09:59;25.00;;;5.97;;
17618;SDS011;8928;51.678;6.074;2022-11-25T16:16:06;20.63;;;5.97;;
17618;SDS011;8928;51.678;6.074;2022-11-25T16:19:03;19.60;;;5.70;;
17618;SDS011;8928;51.678;6.074;2022-11-25T16:21:57;26.40;;;6.30;;
17618;SDS011;8928;51.678;6.074;2022-11-25T16:24:47;26.87;;;6.70;;
17618;SDS011;8928;51.678;6.074;2022-11-25T16:27:37;22.83;;;6.43;;
17618;SDS011;8928;51.678;6.074;2022-11-25T16:30:24;18.50;;;6.07;;
17618;SDS011;8928;51.678;6.074;2022-11-25T16:33:12;26.27;;;6.47;;
17618;SDS011;8928;51.678;6.074;2022-11-25T16:35:59;19.27;;;6.20;;
17618;SDS011;8928;51.678;6.074;2022-11-25T16:38:50;22.20;;;6.37;;
17618;SDS011;8928;51.678;6.074;2022-11-25T16:41:39;25.47;;;6.60;;
17618;SDS011;8928;51.678;6.074;2022-11-25T16:44:29;29.30;;;6.70;;
17618;SDS011;8928;51.678;6.074;2022-11-25T16:47:18;24.47;;;6.77;;
17618;SDS011;8928;51.678;6.074;2022-11-25T16:50:10;24.80;;;7.17;;
17618;SDS011;8928;51.678;6.074;2022-11-25T16:52:58;27.77;;;8.23;;
17618;SDS011;8928;51.678;6.074;2022-11-25T16:55:45;29.23;;;8.30;;
17618;SDS011;8928;51.678;6.074;2022-11-25T16:58:33;29.23;;;8.60;;
17618;SDS011;8928;51.678;6.074;2022-11-25T17:01:22;30.87;;;8.77;;
17618;SDS011;8928;51.678;6.074;2022-11-25T17:04:11;28.40;;;8.00;;
17618;SDS011;8928;51.678;6.074;2022-11-25T17:06:59;29.10;;;7.93;;
17618;SDS011;8928;51.678;6.074;2022-11-25T17:09:46;33.17;;;8.80;;
17618;SDS011;8928;51.678;6.074;2022-11-25T17:12:33;32.67;;;8.63;;
17618;SDS011;8928;51.678;6.074;2022-11-25T17:15:22;36.03;;;9.00;;
17618;SDS011;8928;51.678;6.074;2022-11-25T17:18:20;36.50;;;8.87;;
17618;SDS011;8928;51.678;6.074;2022-11-25T17:21:08;25.23;;;8.43;;
17618;SDS011;8928;51.678;6.074;2022-11-25T17:23:58;36.60;;;9.20;;
17618;SDS011;8928;51.678;6.074;2022-11-25T17:26:48;33.40;;;8.90;;
17618;SDS011;8928;51.678;6.074;2022-11-25T17:29:39;27.53;;;9.43;;
17618;SDS011;8928;51.678;6.074;2022-11-25T17:32:28;31.70;;;9.23;;